createdAt,value
2022-10-15T00:00:59.249Z,98829.51
2022-10-15T00:04:16.979Z,98831.42
2022-10-15T00:07:33.851Z,98823.81
2022-10-15T00:10:51.663Z,98830.69
2022-10-15T00:14:09.261Z,98828.84
2022-10-15T00:17:25.697Z,98819.88
2022-10-15T00:20:42.349Z,98830.84
2022-10-15T00:23:58.962Z,98814.58
2022-10-15T00:27:15.318Z,98816.39
2022-10-15T00:30:31.457Z,98813.12
2022-10-15T00:33:49.142Z,98810.27
2022-10-15T00:37:05.179Z,98801.94
2022-10-15T00:40:23.686Z,98800.59
2022-10-15T00:43:50.240Z,98806.89
2022-10-15T00:47:10.708Z,98801.86
2022-10-15T00:50:30.750Z,98806.17
2022-10-15T00:53:47.138Z,98806.98
2022-10-15T00:57:04.749Z,98808.83
2022-10-15T01:00:25.102Z,98793.72
2022-10-15T01:03:41.262Z,98792.09
2022-10-15T01:06:57.355Z,98792.91
2022-10-15T01:10:15.753Z,98786.60
2022-10-15T01:13:41.759Z,98788.06
2022-10-15T01:17:04.123Z,98782.76
2022-10-15T01:20:58.550Z,98781.30
2022-10-15T01:24:48.638Z,98773.69
2022-10-15T01:28:10.714Z,98781.03
2022-10-15T01:31:34.097Z,98775.34
2022-10-15T01:34:56.077Z,98772.15
2022-10-15T01:38:21.526Z,98771.23
2022-10-15T01:41:43.463Z,98769.95
2022-10-15T01:45:03.906Z,98778.72
2022-10-15T01:48:26.855Z,98773.80
2022-10-15T01:51:48.744Z,98766.46
2022-10-15T01:55:07.458Z,98776.98
2022-10-15T01:58:26.580Z,98761.88
2022-10-15T02:04:58.475Z,98755.84
2022-10-15T02:08:20.326Z,98756.41
2022-10-15T02:11:43.378Z,98746.53
2022-10-15T02:15:04.692Z,98743.38
2022-10-15T02:18:25.957Z,98746.76
2022-10-15T02:21:47.801Z,98739.16
2022-10-15T02:25:09.364Z,98737.06
2022-10-15T02:28:27.667Z,98741.24
2022-10-15T02:31:47.691Z,98745.36
2022-10-15T02:35:04.666Z,98745.45
2022-10-15T02:38:25.129Z,98744.64
2022-10-15T02:41:43.862Z,98749.94
2022-10-15T02:45:01.175Z,98742.17
2022-10-15T02:48:18.097Z,98739.06
2022-10-15T02:51:38.708Z,98732.39
2022-10-15T02:54:54.912Z,98740.34
2022-10-15T02:58:11.428Z,98736.22
2022-10-15T03:01:28.015Z,98729.27
2022-10-15T03:04:44.516Z,98730.92
2022-10-15T03:08:03.153Z,98732.84
2022-10-15T03:11:17.988Z,98722.98
2022-10-15T03:14:34.549Z,98726.13
2022-10-15T03:17:52.984Z,98725.67
2022-10-15T03:21:09.765Z,98720.91
2022-10-15T03:24:26.930Z,98721.75
2022-10-15T03:27:43.146Z,98717.64
2022-10-15T03:31:00.919Z,98722.38
2022-10-15T03:34:17.643Z,98720.75
2022-10-15T03:37:34.724Z,98716.80
2022-10-15T03:40:52.935Z,98713.80
2022-10-15T03:44:13.915Z,98709.22
2022-10-15T03:47:31.731Z,98702.46
2022-10-15T03:50:49.271Z,98702.62
2022-10-15T03:54:06.075Z,98704.97
2022-10-15T03:57:23.801Z,98699.20
2022-10-15T04:00:42.113Z,98686.14
2022-10-15T04:04:01.188Z,98686.70
2022-10-15T04:07:18.462Z,98687.70
2022-10-15T04:10:35.432Z,98687.24
2022-10-15T04:13:55.404Z,98687.96
2022-10-15T04:17:11.770Z,98696.82
2022-10-15T04:20:28.342Z,98689.59
2022-10-15T04:23:46.751Z,98689.94
2022-10-15T04:27:08.397Z,98696.80
2022-10-15T04:30:25.877Z,98698.59
2022-10-15T04:33:44.123Z,98698.81
2022-10-15T04:37:00.681Z,98688.77
2022-10-15T04:40:20.208Z,98695.45
2022-10-15T04:43:34.613Z,98697.91
2022-10-15T04:46:52.788Z,98691.15
2022-10-15T04:50:26.055Z,98688.16
2022-10-15T04:54:03.132Z,98695.28
2022-10-15T04:57:19.379Z,98691.02
2022-10-15T05:00:35.588Z,98685.24
2022-10-15T05:03:58.348Z,98687.45
2022-10-15T05:07:15.242Z,98694.73
2022-10-15T05:10:31.499Z,98688.30
2022-10-15T05:13:49.623Z,98692.95
2022-10-15T05:17:06.481Z,98684.70
2022-10-15T05:20:24.644Z,98691.91
2022-10-15T05:23:42.057Z,98699.12
2022-10-15T05:27:05.440Z,98706.05
2022-10-15T05:30:23.459Z,98700.58
2022-10-15T05:33:40.997Z,98695.31
2022-10-15T05:36:58.067Z,98693.55
2022-10-15T05:40:19.651Z,98684.83
2022-10-15T05:43:40.307Z,98696.75
2022-10-15T05:46:55.108Z,98693.98
2022-10-15T05:50:14.523Z,98700.22
2022-10-15T05:53:32.477Z,98697.94
2022-10-15T05:56:50.249Z,98702.72
2022-10-15T06:00:06.354Z,98702.38
2022-10-15T06:03:24.819Z,98706.34
2022-10-15T06:06:40.881Z,98707.88
2022-10-15T06:09:57.569Z,98711.19
2022-10-15T06:13:16.152Z,98707.34
2022-10-15T06:16:32.751Z,98713.52
2022-10-15T06:19:49.338Z,98715.18
2022-10-15T06:23:11.846Z,98725.03
2022-10-15T06:26:28.557Z,98724.03
2022-10-15T06:29:44.985Z,98731.70
2022-10-15T06:33:02.344Z,98733.56
2022-10-15T06:36:19.862Z,98737.95
2022-10-15T06:39:36.089Z,98739.63
2022-10-15T06:42:52.557Z,98750.50
2022-10-15T06:46:09.697Z,98750.09
2022-10-15T06:49:25.770Z,98742.51
2022-10-15T06:52:42.477Z,98751.94
2022-10-15T06:56:07.606Z,98747.04
2022-10-15T06:59:26.780Z,98731.23
2022-10-15T07:02:48.838Z,98727.33
2022-10-15T07:06:12.767Z,98732.19
2022-10-15T07:09:29.102Z,98732.41
2022-10-15T07:12:48.742Z,98732.81
2022-10-15T07:16:05.315Z,98732.19
2022-10-15T07:19:22.254Z,98726.23
2022-10-15T07:22:38.359Z,98734.25
2022-10-15T07:25:54.745Z,98745.11
2022-10-15T07:29:11.590Z,98744.05
2022-10-15T07:32:28.437Z,98743.21
2022-10-15T07:35:45.222Z,98745.22
2022-10-15T07:39:01.452Z,98739.48
2022-10-15T07:42:17.642Z,98746.02
2022-10-15T07:45:34.876Z,98744.81
2022-10-15T07:48:50.632Z,98743.75
2022-10-15T07:52:08.533Z,98749.09
2022-10-15T07:55:25.051Z,98751.76
2022-10-15T07:58:41.382Z,98746.38
2022-10-15T08:01:57.602Z,98747.97
2022-10-15T08:05:15.514Z,98747.13
2022-10-15T08:08:34.039Z,98742.96
2022-10-15T08:11:50.740Z,98744.72
2022-10-15T08:15:08.187Z,98748.96
2022-10-15T08:18:24.404Z,98750.09
2022-10-15T08:21:42.718Z,98752.39
2022-10-15T08:24:58.141Z,98749.67
2022-10-15T08:28:14.866Z,98741.73
2022-10-15T08:31:32.482Z,98745.13
2022-10-15T08:34:48.583Z,98746.23
2022-10-15T08:38:05.252Z,98748.77
2022-10-15T08:41:33.395Z,98751.23
2022-10-15T08:44:55.110Z,98751.48
2022-10-15T08:48:16.270Z,98750.48
2022-10-15T08:51:39.567Z,98745.39
2022-10-15T08:54:55.653Z,98748.14
2022-10-15T08:58:19.152Z,98747.59
2022-10-15T09:01:41.167Z,98745.30
2022-10-15T09:05:05.291Z,98752.70
2022-10-15T09:08:30.879Z,98766.05
2022-10-15T09:11:56.528Z,98755.79
2022-10-15T09:15:16.506Z,98750.33
2022-10-15T09:18:37.593Z,98748.80
2022-10-15T09:21:57.756Z,98747.77
2022-10-15T09:25:28.606Z,98748.36
2022-10-15T09:28:54.437Z,98760.36
2022-10-15T09:32:19.667Z,98765.63
2022-10-15T09:35:40.866Z,98773.19
2022-10-15T09:39:07.818Z,98762.59
2022-10-15T09:42:34.594Z,98767.34
2022-10-15T09:45:51.796Z,98781.95
2022-10-15T09:49:18.453Z,98778.79
2022-10-15T09:52:48.277Z,98767.13
2022-10-15T09:56:09.050Z,98775.41
2022-10-15T09:59:29.399Z,98773.44
2022-10-15T10:02:49.877Z,98783.83
2022-10-15T10:06:14.992Z,98778.70
2022-10-15T10:09:37.629Z,98787.09
2022-10-15T10:12:55.156Z,98773.44
2022-10-15T10:16:17.923Z,98779.48
2022-10-15T10:19:34.194Z,98771.32
2022-10-15T10:22:55.284Z,98774.48
2022-10-15T10:26:16.613Z,98777.41
2022-10-15T10:29:35.307Z,98773.32
2022-10-15T10:32:55.079Z,98774.01
2022-10-15T10:36:13.819Z,98781.82
2022-10-15T10:39:37.289Z,98774.37
2022-10-15T10:42:53.406Z,98779.02
2022-10-15T10:46:15.415Z,98783.22
2022-10-15T10:49:43.773Z,98782.78
2022-10-15T10:53:20.624Z,98783.62
2022-10-15T10:56:40.735Z,98791.88
2022-10-15T11:00:00.926Z,98788.70
2022-10-15T11:03:26.856Z,98788.70
2022-10-15T11:07:04.388Z,98803.75
2022-10-15T11:10:27.376Z,98793.26
2022-10-15T11:13:59.320Z,98786.48
2022-10-15T11:17:21.925Z,98796.95
2022-10-15T11:20:56.305Z,98796.59
2022-10-15T11:24:37.792Z,98790.16
2022-10-15T11:28:14.627Z,98785.50
2022-10-15T11:31:44.020Z,98786.97
2022-10-15T11:35:07.312Z,98781.84
2022-10-15T11:38:31.351Z,98781.84
2022-10-15T11:41:53.411Z,98774.17
2022-10-15T11:45:44.448Z,98773.27
2022-10-15T11:49:13.454Z,98760.58
2022-10-15T11:52:53.872Z,98765.47
2022-10-15T11:56:16.016Z,98766.20
2022-10-15T11:59:43.513Z,98754.67
2022-10-15T12:03:03.542Z,98750.70
2022-10-15T12:06:24.052Z,98761.20
2022-10-15T12:09:44.815Z,98751.98
2022-10-15T12:13:06.282Z,98749.75
2022-10-15T12:16:30.872Z,98748.70
2022-10-15T12:19:52.032Z,98754.88
2022-10-15T12:23:10.852Z,98754.98
2022-10-15T12:26:39.937Z,98748.94
2022-10-15T12:30:05.132Z,98746.50
2022-10-15T12:33:41.023Z,98751.86
2022-10-15T12:37:06.701Z,98760.71
2022-10-15T12:40:34.958Z,98759.30
2022-10-15T12:43:56.454Z,98758.83
2022-10-15T12:47:14.876Z,98753.94
2022-10-15T12:50:36.363Z,98752.06
2022-10-15T12:53:56.938Z,98756.16
2022-10-15T12:57:44.976Z,98756.98
2022-10-15T13:01:01.117Z,98751.86
2022-10-15T13:04:17.902Z,98740.89
2022-10-15T13:07:36.803Z,98742.54
2022-10-15T13:11:00.728Z,98738.58
2022-10-15T13:14:30.169Z,98738.34
2022-10-15T13:17:48.765Z,98739.50
2022-10-15T13:21:11.271Z,98727.49
2022-10-15T13:24:30.012Z,98727.28
2022-10-15T13:27:47.110Z,98736.73
2022-10-15T13:31:03.991Z,98726.22
2022-10-15T13:34:29.981Z,98721.69
2022-10-15T13:37:51.812Z,98726.22
2022-10-15T13:41:08.209Z,98724.81
2022-10-15T13:44:34.647Z,98728.33
2022-10-15T13:47:54.774Z,98728.56
2022-10-15T13:51:15.041Z,98733.57
2022-10-15T13:54:34.256Z,98731.93
2022-10-15T13:57:53.819Z,98734.61
2022-10-15T14:01:14.197Z,98728.66
2022-10-15T14:04:32.057Z,98737.53
2022-10-15T14:07:48.074Z,98739.85
2022-10-15T14:11:06.955Z,98737.85
2022-10-15T14:14:48.911Z,98732.72
2022-10-15T14:18:06.309Z,98744.13
2022-10-15T14:21:28.905Z,98752.05
2022-10-15T14:24:47.557Z,98745.04
2022-10-15T14:28:04.043Z,98739.68
2022-10-15T14:31:32.449Z,98739.31
2022-10-15T14:34:50.197Z,98751.55
2022-10-15T14:38:21.774Z,98754.47
2022-10-15T14:41:40.761Z,98750.02
2022-10-15T14:45:01.457Z,98743.02
2022-10-15T14:48:25.088Z,98755.45
2022-10-15T14:51:42.547Z,98753.23
2022-10-15T14:55:06.351Z,98746.23
2022-10-15T14:58:27.603Z,98757.63
2022-10-15T15:05:22.518Z,98758.85
2022-10-15T15:08:38.889Z,98768.22
2022-10-15T15:12:21.800Z,98780.66
2022-10-15T15:15:30.270Z,98770.98
2022-10-15T15:18:49.045Z,98780.06
2022-10-15T15:22:05.837Z,98769.95
2022-10-15T15:25:29.766Z,98778.19
2022-10-15T15:28:46.779Z,98770.81
2022-10-15T15:32:02.933Z,98771.52
2022-10-15T15:35:32.390Z,98775.55
2022-10-15T15:38:51.889Z,98778.45
2022-10-15T15:42:08.149Z,98773.15
2022-10-15T15:45:33.612Z,98773.61
2022-10-15T15:48:50.545Z,98774.88
2022-10-15T15:52:06.850Z,98774.88
2022-10-15T15:55:26.404Z,98774.88
2022-10-15T15:58:42.960Z,98778.58
2022-10-15T16:01:59.243Z,98771.81
2022-10-15T16:05:19.934Z,98778.66
2022-10-15T16:08:37.958Z,98772.92
2022-10-15T16:11:54.431Z,98771.28
2022-10-15T16:15:14.556Z,98763.67
2022-10-15T16:18:30.078Z,98784.28
2022-10-15T16:21:46.208Z,98771.77
2022-10-15T16:25:04.988Z,98774.91
2022-10-15T16:28:21.782Z,98786.25
2022-10-15T16:31:38.376Z,98787.06
2022-10-15T16:34:54.581Z,98790.77
2022-10-15T16:38:13.937Z,98801.47
2022-10-15T16:41:32.148Z,98811.14
2022-10-15T16:44:48.337Z,98808.86
2022-10-15T16:48:08.535Z,98820.17
2022-10-15T16:51:26.725Z,98822.39
2022-10-15T16:54:43.141Z,98823.62
2022-10-15T16:57:59.321Z,98817.81
2022-10-15T17:01:18.483Z,98822.13
2022-10-15T17:04:35.161Z,98828.91
2022-10-15T17:07:51.305Z,98840.22
2022-10-15T17:11:07.509Z,98845.58
2022-10-15T17:14:25.475Z,98849.06
2022-10-15T17:17:46.062Z,98841.64
2022-10-15T17:21:03.327Z,98839.34
2022-10-15T17:24:22.780Z,98841.95
2022-10-15T17:27:39.284Z,98844.86
2022-10-15T17:30:55.601Z,98854.30
2022-10-15T17:34:15.711Z,98855.34
2022-10-15T17:40:50.706Z,98858.02
2022-10-15T17:44:07.106Z,98848.95
2022-10-15T17:47:24.628Z,98854.73
2022-10-15T17:50:45.247Z,98858.82
2022-10-15T17:54:02.981Z,98851.02
2022-10-15T17:57:20.337Z,98855.56
2022-10-15T18:00:37.073Z,98853.09
2022-10-15T18:03:54.107Z,98862.18
2022-10-15T18:07:15.268Z,98858.89
2022-10-15T18:10:32.133Z,98856.22
2022-10-15T18:13:49.531Z,98853.38
2022-10-15T18:17:05.909Z,98856.48
2022-10-15T18:20:22.171Z,98849.70
2022-10-15T18:23:45.739Z,98849.70
2022-10-15T18:27:02.752Z,98844.58
2022-10-15T18:30:20.539Z,98844.64
2022-10-15T18:33:39.880Z,98853.92
2022-10-15T18:36:56.256Z,98854.13
2022-10-15T18:40:15.198Z,98859.08
2022-10-15T18:43:31.710Z,98874.78
2022-10-15T18:46:48.649Z,98870.30
2022-10-15T18:50:04.779Z,98877.48
2022-10-15T18:53:24.517Z,98881.86
2022-10-15T18:56:44.991Z,98880.63
2022-10-15T19:00:01.202Z,98878.81
2022-10-15T19:03:18.530Z,98887.28
2022-10-15T19:06:37.151Z,98888.09
2022-10-15T19:09:53.884Z,98884.83
2022-10-15T19:13:14.134Z,98890.59
2022-10-15T19:16:30.660Z,98894.95
2022-10-15T19:19:51.673Z,98899.47
2022-10-15T19:23:10.697Z,98892.91
2022-10-15T19:26:28.568Z,98895.97
2022-10-15T19:29:45.214Z,98900.09
2022-10-15T19:33:01.424Z,98903.98
2022-10-15T19:36:19.789Z,98909.56
2022-10-15T19:39:38.370Z,98914.28
2022-10-15T19:42:54.520Z,98905.69
2022-10-15T19:46:14.156Z,98900.82
2022-10-15T19:49:30.531Z,98901.08
2022-10-15T19:52:46.821Z,98908.50
2022-10-15T19:56:09.564Z,98905.64
2022-10-15T19:59:33.075Z,98908.72
2022-10-15T20:02:51.792Z,98912.41
2022-10-15T20:06:10.295Z,98910.36
2022-10-15T20:09:26.551Z,98916.73
2022-10-15T20:12:42.814Z,98924.13
2022-10-15T20:16:01.234Z,98922.50
2022-10-15T20:19:17.865Z,98932.56
2022-10-15T20:22:34.597Z,98928.67
2022-10-15T20:25:52.055Z,98926.01
2022-10-15T20:29:08.401Z,98931.15
2022-10-15T20:32:34.188Z,98931.32
2022-10-15T20:35:45.056Z,98936.84
2022-10-15T20:39:06.890Z,98934.99
2022-10-15T20:42:23.262Z,98936.60
2022-10-15T20:45:46.291Z,98933.89
2022-10-15T20:49:07.684Z,98935.28
2022-10-15T20:52:23.048Z,98941.19
2022-10-15T20:55:39.511Z,98949.34
2022-10-15T20:58:55.595Z,98940.31
2022-10-15T21:02:11.672Z,98944.78
2022-10-15T21:05:27.820Z,98941.89
2022-10-15T21:08:44.130Z,98946.59
2022-10-15T21:12:00.657Z,98954.98
2022-10-15T21:15:18.033Z,98955.80
2022-10-15T21:18:34.899Z,98952.70
2022-10-15T21:21:53.986Z,98950.44
2022-10-15T21:25:12.804Z,98951.02
2022-10-15T21:28:29.112Z,98948.73
2022-10-15T21:31:48.052Z,98963.44
2022-10-15T21:35:06.078Z,98967.72
2022-10-15T21:38:22.411Z,98970.96
2022-10-15T21:41:40.999Z,98968.30
2022-10-15T21:44:57.039Z,98965.88
2022-10-15T21:48:14.543Z,98950.96
2022-10-15T21:51:33.977Z,98963.77
2022-10-15T21:54:50.017Z,98964.66
2022-10-15T21:58:08.859Z,98966.30
2022-10-15T22:01:28.165Z,98971.44
2022-10-15T22:04:44.712Z,98962.42
2022-10-15T22:08:00.708Z,98966.30
2022-10-15T22:11:23.991Z,98967.32
2022-10-15T22:14:40.351Z,98973.23
2022-10-15T22:17:56.674Z,98969.96
2022-10-15T22:21:26.715Z,98970.74
2022-10-15T22:24:43.106Z,98981.16
2022-10-15T22:27:59.160Z,98985.19
2022-10-15T22:31:19.093Z,98987.24
2022-10-15T22:34:35.182Z,98984.14
2022-10-15T22:37:51.337Z,98992.94
2022-10-15T22:41:08.007Z,98995.81
2022-10-15T22:44:26.528Z,98981.91
2022-10-15T22:47:42.575Z,98987.41
2022-10-15T22:51:05.472Z,98997.05
2022-10-15T22:54:22.645Z,98988.86
2022-10-15T22:57:39.018Z,98992.57
2022-10-15T23:00:55.340Z,99004.00
2022-10-15T23:04:13.539Z,98999.24
2022-10-15T23:07:29.598Z,99004.94
2022-10-15T23:10:45.784Z,99005.58
2022-10-15T23:14:06.489Z,99012.36
2022-10-15T23:20:40.811Z,99011.98
2022-10-15T23:23:59.108Z,99011.55
2022-10-15T23:27:16.418Z,99007.61
2022-10-15T23:30:32.635Z,99008.65
2022-10-15T23:33:48.823Z,99011.11
2022-10-15T23:37:04.920Z,99019.91
2022-10-15T23:40:21.816Z,99018.90
2022-10-15T23:43:37.882Z,99019.58
2022-10-15T23:46:54.152Z,99020.02
2022-10-15T23:50:10.874Z,99017.55
2022-10-15T23:53:28.026Z,99023.25
2022-10-15T23:56:44.614Z,99013.20
